createdAt,value
2022-09-12T00:01:22.125Z,100463.47
2022-09-12T00:03:53.604Z,100456.72
2022-09-12T00:06:26.984Z,100456.91
2022-09-12T00:08:56.746Z,100465.88
2022-09-12T00:11:25.949Z,100466.09
2022-09-12T00:13:58.342Z,100463.66
2022-09-12T00:16:31.532Z,100459.31
2022-09-12T00:19:00.121Z,100460.19
2022-09-12T00:21:28.596Z,100455.88
2022-09-12T00:23:56.948Z,100451.50
2022-09-12T00:26:25.256Z,100455.41
2022-09-12T00:28:56.278Z,100454.66
2022-09-12T00:31:26.843Z,100445.06
2022-09-12T00:33:58.558Z,100447.81
2022-09-12T00:36:27.729Z,100441.53
2022-09-12T00:38:56.067Z,100443.47
2022-09-12T00:41:26.621Z,100437.34
2022-09-12T00:43:58.558Z,100446.38
2022-09-12T00:46:38.278Z,100443.94
2022-09-12T00:49:15.390Z,100448.50
2022-09-12T00:51:48.395Z,100447.63
2022-09-12T00:54:25.509Z,100445.81
2022-09-12T00:56:56.812Z,100449.31
2022-09-12T00:59:28.632Z,100446.88
2022-09-12T01:01:57.695Z,100442.47
2022-09-12T01:04:29.184Z,100442.59
2022-09-12T01:06:59.455Z,100432.00
2022-09-12T01:09:27.811Z,100429.94
2022-09-12T01:11:56.209Z,100425.53
2022-09-12T01:14:24.565Z,100436.25
2022-09-12T01:16:54.943Z,100431.81
2022-09-12T01:19:51.425Z,100432.81
2022-09-12T01:22:37.734Z,100423.19
2022-09-12T01:25:15.332Z,100433.88
2022-09-12T01:28:02.535Z,100427.81
2022-09-12T01:30:45.883Z,100424.22
2022-09-12T01:33:33.900Z,100420.50
2022-09-12T01:36:20.600Z,100427.75
2022-09-12T01:38:51.233Z,100422.66
2022-09-12T01:41:27.824Z,100418.28
2022-09-12T01:44:06.741Z,100427.19
2022-09-12T01:46:46.695Z,100422.78
2022-09-12T01:49:21.411Z,100422.41
2022-09-12T01:51:58.567Z,100414.56
2022-09-12T01:54:31.802Z,100414.56
2022-09-12T01:57:03.196Z,100419.84
2022-09-12T01:59:36.376Z,100413.09
2022-09-12T02:02:09.981Z,100407.06
2022-09-12T02:04:40.232Z,100403.72
2022-09-12T02:07:14.308Z,100400.16
2022-09-12T02:09:47.981Z,100406.47
2022-09-12T02:12:20.161Z,100399.34
2022-09-12T02:14:52.837Z,100410.97
2022-09-12T02:17:24.576Z,100407.56
2022-09-12T02:19:57.561Z,100395.03
2022-09-12T02:22:28.520Z,100399.44
2022-09-12T02:25:00.828Z,100399.13
2022-09-12T02:27:37.905Z,100396.94
2022-09-12T02:30:07.028Z,100390.88
2022-09-12T02:32:39.324Z,100395.03
2022-09-12T02:35:15.850Z,100393.22
2022-09-12T02:37:56.173Z,100385.19
2022-09-12T02:40:25.652Z,100384.31
2022-09-12T02:42:54.184Z,100385.19
2022-09-12T02:45:23.718Z,100381.75
2022-09-12T02:47:59.605Z,100388.06
2022-09-12T02:50:30.616Z,100389.97
2022-09-12T02:53:03.965Z,100387.34
2022-09-12T02:55:35.846Z,100387.53
2022-09-12T02:58:07.712Z,100380.50
2022-09-12T03:00:42.882Z,100386.75
2022-09-12T03:03:28.025Z,100378.25
2022-09-12T03:06:00.113Z,100383.84
2022-09-12T03:08:55.780Z,100375.06
2022-09-12T03:11:52.113Z,100380.53
2022-09-12T03:14:32.977Z,100372.50
2022-09-12T03:17:09.189Z,100378.91
2022-09-12T03:19:53.857Z,100372.47
2022-09-12T03:22:29.853Z,100370.59
2022-09-12T03:27:00.110Z,100375.78
2022-09-12T03:29:29.493Z,100380.13
2022-09-12T03:31:59.272Z,100375.19
2022-09-12T03:34:29.210Z,100380.28
2022-09-12T03:36:57.404Z,100376.13
2022-09-12T03:39:27.078Z,100376.16
2022-09-12T03:41:57.213Z,100382.56
2022-09-12T03:44:26.118Z,100377.41
2022-09-12T03:46:54.116Z,100379.44
2022-09-12T03:49:22.350Z,100383.09
2022-09-12T03:51:54.869Z,100379.69
2022-09-12T03:54:23.306Z,100386.88
2022-09-12T03:56:51.452Z,100390.03
2022-09-12T03:59:21.028Z,100392.44
2022-09-12T04:01:49.058Z,100374.38
2022-09-12T04:04:17.071Z,100383.94
2022-09-12T04:06:45.051Z,100382.22
2022-09-12T04:09:13.118Z,100377.72
2022-09-12T04:11:41.252Z,100381.25
2022-09-12T04:14:11.671Z,100379.72
2022-09-12T04:16:42.168Z,100374.91
2022-09-12T04:19:11.416Z,100377.81
2022-09-12T04:21:40.204Z,100374.13
2022-09-12T04:24:08.190Z,100379.19
2022-09-12T04:26:36.077Z,100377.13
2022-09-12T04:29:04.915Z,100383.31
2022-09-12T04:31:32.855Z,100386.63
2022-09-12T04:34:02.366Z,100380.38
2022-09-12T04:36:31.084Z,100384.16
2022-09-12T04:39:00.275Z,100388.53
2022-09-12T04:41:33.258Z,100383.19
2022-09-12T04:44:03.402Z,100382.97
2022-09-12T04:46:32.896Z,100387.31
2022-09-12T04:49:05.373Z,100382.84
2022-09-12T04:51:36.104Z,100380.38
2022-09-12T04:54:05.955Z,100381.09
2022-09-12T04:56:39.946Z,100375.72
2022-09-12T04:59:09.087Z,100376.47
2022-09-12T05:01:40.259Z,100371.94
2022-09-12T05:04:12.910Z,100369.13
2022-09-12T05:06:42.380Z,100365.38
2022-09-12T05:09:14.034Z,100365.50
2022-09-12T05:12:03.767Z,100367.38
2022-09-12T05:14:33.225Z,100373.66
2022-09-12T05:17:02.269Z,100370.16
2022-09-12T05:19:32.128Z,100362.22
2022-09-12T05:22:00.840Z,100374.72
2022-09-12T05:24:29.107Z,100377.38
2022-09-12T05:26:57.264Z,100373.84
2022-09-12T05:29:25.567Z,100372.28
2022-09-12T05:31:55.765Z,100373.06
2022-09-12T05:34:24.385Z,100375.38
2022-09-12T05:36:53.694Z,100376.97
2022-09-12T05:39:24.773Z,100364.22
2022-09-12T05:41:52.681Z,100376.28
2022-09-12T05:44:20.733Z,100380.03
2022-09-12T05:46:51.249Z,100369.13
2022-09-12T05:49:19.419Z,100374.47
2022-09-12T05:51:47.357Z,100379.59
2022-09-12T05:54:21.400Z,100382.06
2022-09-12T05:56:51.763Z,100372.19
2022-09-12T05:59:21.518Z,100384.19
2022-09-12T06:01:49.802Z,100384.19
2022-09-12T06:04:20.676Z,100381.34
2022-09-12T06:06:51.835Z,100383.94
2022-09-12T06:09:21.567Z,100387.03
2022-09-12T06:11:49.488Z,100381.13
2022-09-12T06:14:19.431Z,100384.09
2022-09-12T06:16:48.797Z,100377.69
2022-09-12T06:19:18.640Z,100378.84
2022-09-12T06:21:48.468Z,100381.56
2022-09-12T06:24:22.101Z,100381.16
2022-09-12T06:26:52.893Z,100379.19
2022-09-12T06:29:21.913Z,100374.34
2022-09-12T06:31:50.013Z,100367.25
2022-09-12T06:34:17.956Z,100374.88
2022-09-12T06:36:48.211Z,100367.88
2022-09-12T06:39:18.147Z,100370.13
2022-09-12T06:41:50.941Z,100375.03
2022-09-12T06:44:20.850Z,100380.53
2022-09-12T06:46:51.555Z,100383.47
2022-09-12T06:49:19.567Z,100378.72
2022-09-12T06:51:50.764Z,100388.94
2022-09-12T06:54:19.941Z,100389.38
2022-09-12T06:56:51.961Z,100386.59
2022-09-12T06:59:22.869Z,100396.63
2022-09-12T07:01:50.925Z,100394.75
2022-09-12T07:04:19.904Z,100391.13
2022-09-12T07:06:48.204Z,100395.38
2022-09-12T07:09:17.480Z,100389.78
2022-09-12T07:11:47.279Z,100389.84
2022-09-12T07:14:16.972Z,100394.94
2022-09-12T07:16:45.060Z,100391.16
2022-09-12T07:19:13.209Z,100394.41
2022-09-12T07:21:42.219Z,100392.50
2022-09-12T07:24:11.698Z,100389.44
2022-09-12T07:26:44.098Z,100390.66
2022-09-12T07:32:06.077Z,100392.63
2022-09-12T07:34:35.150Z,100397.09
2022-09-12T07:37:03.132Z,100388.13
2022-09-12T07:39:31.315Z,100387.53
2022-09-12T07:42:00.430Z,100393.34
2022-09-12T07:44:30.300Z,100379.59
2022-09-12T07:46:58.214Z,100386.19
2022-09-12T07:49:26.314Z,100380.78
2022-09-12T07:51:54.604Z,100388.06
2022-09-12T07:54:22.806Z,100384.44
2022-09-12T07:56:56.122Z,100378.91
2022-09-12T07:59:48.912Z,100380.50
2022-09-12T08:02:17.405Z,100378.91
2022-09-12T08:04:46.673Z,100380.78
2022-09-12T08:07:14.745Z,100373.38
2022-09-12T08:09:43.125Z,100373.59
2022-09-12T08:12:11.311Z,100375.19
2022-09-12T08:14:39.281Z,100375.44
2022-09-12T08:17:10.409Z,100382.16
2022-09-12T08:19:39.856Z,100379.97
2022-09-12T08:22:08.323Z,100386.06
2022-09-12T08:27:56.172Z,100371.59
2022-09-12T08:30:24.145Z,100368.41
2022-09-12T08:32:52.033Z,100380.44
2022-09-12T08:35:22.576Z,100373.41
2022-09-12T08:37:50.604Z,100382.81
2022-09-12T08:40:19.150Z,100382.84
2022-09-12T08:42:59.053Z,100380.19
2022-09-12T08:45:34.157Z,100391.81
2022-09-12T08:48:05.749Z,100389.59
2022-09-12T08:50:33.967Z,100385.25
2022-09-12T08:53:05.607Z,100390.25
2022-09-12T08:55:37.868Z,100396.03
2022-09-12T08:58:13.378Z,100389.84
2022-09-12T09:00:54.132Z,100387.78
2022-09-12T09:03:57.690Z,100384.56
2022-09-12T09:06:46.063Z,100380.63
2022-09-12T09:09:25.930Z,100377.72
2022-09-12T09:12:07.278Z,100386.78
2022-09-12T09:14:59.448Z,100381.56
2022-09-12T09:17:35.927Z,100389.38
2022-09-12T09:20:15.321Z,100381.09
2022-09-12T09:22:47.275Z,100382.06
2022-09-12T09:25:22.995Z,100380.59
2022-09-12T09:27:59.344Z,100377.94
2022-09-12T09:30:28.678Z,100389.75
2022-09-12T09:33:00.884Z,100379.34
2022-09-12T09:35:42.844Z,100382.72
2022-09-12T09:38:24.785Z,100383.00
2022-09-12T09:41:12.158Z,100379.28
2022-09-12T09:43:42.528Z,100381.03
2022-09-12T09:46:14.273Z,100375.50
2022-09-12T09:48:48.515Z,100374.75
2022-09-12T09:51:27.976Z,100376.22
2022-09-12T09:54:01.016Z,100374.44
2022-09-12T09:56:32.742Z,100381.06
2022-09-12T09:59:10.203Z,100381.66
2022-09-12T10:01:39.945Z,100379.13
2022-09-12T10:04:19.973Z,100376.84
2022-09-12T10:06:48.359Z,100376.19
2022-09-12T10:09:26.129Z,100370.38
2022-09-12T10:11:55.274Z,100367.91
2022-09-12T10:14:39.576Z,100367.88
2022-09-12T10:17:28.709Z,100362.72
2022-09-12T10:22:52.075Z,100348.59
2022-09-12T10:25:21.380Z,100348.81
2022-09-12T10:27:55.233Z,100348.91
2022-09-12T10:30:28.290Z,100352.38
2022-09-12T10:33:07.616Z,100353.41
2022-09-12T10:35:49.253Z,100347.91
2022-09-12T10:38:23.336Z,100347.59
2022-09-12T10:40:59.210Z,100348.66
2022-09-12T10:43:30.496Z,100340.28
2022-09-12T10:46:00.386Z,100334.59
2022-09-12T10:48:31.793Z,100333.88
2022-09-12T10:51:02.033Z,100331.91
2022-09-12T10:53:34.761Z,100327.78
2022-09-12T10:56:14.730Z,100326.91
2022-09-12T10:59:06.978Z,100331.47
2022-09-12T11:01:44.232Z,100322.25
2022-09-12T11:04:47.584Z,100318.78
2022-09-12T11:07:30.874Z,100322.31
2022-09-12T11:10:13.358Z,100315.38
2022-09-12T11:12:44.797Z,100308.13
2022-09-12T11:15:32.321Z,100315.41
2022-09-12T11:18:10.116Z,100314.88
2022-09-12T11:21:04.732Z,100306.34
2022-09-12T11:24:08.963Z,100309.53
2022-09-12T11:26:50.520Z,100301.59
2022-09-12T11:29:33.635Z,100306.09
2022-09-12T11:32:21.074Z,100293.81
2022-09-12T11:34:59.901Z,100295.22
2022-09-12T11:37:48.036Z,100291.91
2022-09-12T11:40:28.878Z,100292.25
2022-09-12T11:43:06.706Z,100292.13
2022-09-12T11:45:41.069Z,100287.56
2022-09-12T11:48:18.718Z,100280.66
2022-09-12T11:50:48.846Z,100278.25
2022-09-12T11:53:24.654Z,100275.00
2022-09-12T11:56:00.550Z,100273.38
2022-09-12T11:58:29.883Z,100274.94
2022-09-12T12:01:13.985Z,100275.50
2022-09-12T12:03:44.082Z,100272.13
2022-09-12T12:06:16.081Z,100272.28
2022-09-12T12:08:47.726Z,100264.69
2022-09-12T12:11:34.437Z,100262.84
2022-09-12T12:14:05.608Z,100259.75
2022-09-12T12:16:39.856Z,100256.19
2022-09-12T12:19:29.494Z,100232.50
2022-09-12T12:22:07.797Z,100253.97
2022-09-12T12:24:37.681Z,100250.56
2022-09-12T12:27:25.634Z,100240.81
2022-09-12T12:29:53.606Z,100249.59
2022-09-12T12:32:28.473Z,100244.44
2022-09-12T12:35:22.104Z,100237.31
2022-09-12T12:37:54.023Z,100228.81
2022-09-12T12:40:28.827Z,100223.63
2022-09-12T12:43:32.042Z,100226.81
2022-09-12T12:46:04.094Z,100222.16
2022-09-12T12:48:53.662Z,100220.00
2022-09-12T12:51:30.571Z,100218.75
2022-09-12T12:53:58.859Z,100213.09
2022-09-12T12:56:40.972Z,100216.81
2022-09-12T12:59:22.765Z,100208.44
2022-09-12T13:01:55.417Z,100201.84
2022-09-12T13:04:29.326Z,100204.97
2022-09-12T13:07:07.742Z,100208.25
2022-09-12T13:09:44.495Z,100199.56
2022-09-12T13:12:20.431Z,100202.72
2022-09-12T13:14:55.501Z,100196.44
2022-09-12T13:17:28.560Z,100192.16
2022-09-12T13:20:29.415Z,100191.66
2022-09-12T13:22:59.218Z,100183.69
2022-09-12T13:29:16.261Z,100176.19
2022-09-12T13:31:47.457Z,100171.94
2022-09-12T13:34:21.446Z,100170.88
2022-09-12T13:37:12.525Z,100159.06
2022-09-12T13:39:49.511Z,100162.47
2022-09-12T13:42:38.561Z,100171.19
2022-09-12T13:45:16.707Z,100162.91
2022-09-12T13:47:49.791Z,100159.81
2022-09-12T13:50:21.021Z,100155.91
2022-09-12T13:52:53.902Z,100159.63
2022-09-12T13:55:31.436Z,100152.81
2022-09-12T13:58:03.777Z,100148.28
2022-09-12T14:00:37.220Z,100148.66
2022-09-12T14:03:43.047Z,100126.81
2022-09-12T14:06:13.582Z,100132.66
2022-09-12T14:08:42.253Z,100131.84
2022-09-12T14:11:25.306Z,100132.09
2022-09-12T14:13:55.903Z,100134.31
2022-09-12T14:16:29.435Z,100131.88
2022-09-12T14:19:00.538Z,100134.66
2022-09-12T14:21:35.741Z,100129.41
2022-09-12T14:24:08.408Z,100131.78
2022-09-12T14:26:40.453Z,100134.31
2022-09-12T14:29:10.647Z,100132.28
2022-09-12T14:31:41.352Z,100130.06
2022-09-12T14:34:12.167Z,100128.88
2022-09-12T14:36:46.998Z,100118.16
2022-09-12T14:39:23.378Z,100117.28
2022-09-12T14:42:01.199Z,100117.94
2022-09-12T14:44:29.577Z,100112.84
2022-09-12T14:47:15.132Z,100111.88
2022-09-12T14:49:43.584Z,100100.59
2022-09-12T14:52:26.296Z,100098.75
2022-09-12T14:54:58.710Z,100100.81
2022-09-12T14:57:38.935Z,100093.34
2022-09-12T15:00:17.803Z,100081.28
2022-09-12T15:02:51.294Z,100081.13
2022-09-12T15:05:22.690Z,100078.34
2022-09-12T15:07:58.270Z,100077.31
2022-09-12T15:10:32.112Z,100066.16
2022-09-12T15:13:18.959Z,100075.66
2022-09-12T15:15:51.039Z,100072.06
2022-09-12T15:18:22.410Z,100070.38
2022-09-12T15:20:55.921Z,100068.63
2022-09-12T15:23:38.299Z,100069.34
2022-09-12T15:26:07.014Z,100068.94
2022-09-12T15:28:35.598Z,100067.28
2022-09-12T15:31:08.598Z,100071.31
2022-09-12T15:33:37.964Z,100071.06
2022-09-12T15:36:14.266Z,100067.78
2022-09-12T15:38:48.604Z,100069.53
2022-09-12T15:41:19.390Z,100061.44
2022-09-12T15:43:48.261Z,100053.97
2022-09-12T15:46:19.138Z,100058.16
2022-09-12T15:48:48.998Z,100063.19
2022-09-12T15:51:18.641Z,100048.47
2022-09-12T15:53:50.576Z,100056.47
2022-09-12T15:56:21.010Z,100051.41
2022-09-12T15:59:05.236Z,100034.47
2022-09-12T16:01:33.401Z,100038.44
2022-09-12T16:04:03.494Z,100042.00
2022-09-12T16:06:37.138Z,100043.31
2022-09-12T16:09:05.891Z,100047.91
2022-09-12T16:11:34.075Z,100046.78
2022-09-12T16:14:03.730Z,100035.31
2022-09-12T16:16:32.008Z,100035.00
2022-09-12T16:19:00.300Z,100028.75
2022-09-12T16:21:29.595Z,100033.91
2022-09-12T16:23:58.515Z,100029.34
2022-09-12T16:26:26.494Z,100029.50
2022-09-12T16:28:56.180Z,100027.81
2022-09-12T16:31:27.785Z,100027.81
2022-09-12T16:33:56.710Z,100020.22
2022-09-12T16:36:27.202Z,100030.97
2022-09-12T16:38:56.706Z,100029.09
2022-09-12T16:41:26.368Z,100029.66
2022-09-12T16:43:56.982Z,100033.94
2022-09-12T16:46:27.897Z,100025.63
2022-09-12T16:48:59.819Z,100024.91
2022-09-12T16:51:29.839Z,100020.44
2022-09-12T16:53:59.528Z,100029.31
2022-09-12T16:56:27.585Z,100021.00
2022-09-12T16:58:55.743Z,100020.25
2022-09-12T17:01:28.223Z,100024.38
2022-09-12T17:03:57.623Z,100007.56
2022-09-12T17:06:27.369Z,100012.50
2022-09-12T17:09:00.741Z,100013.44
2022-09-12T17:11:32.196Z,100014.25
2022-09-12T17:14:05.342Z,100014.75
2022-09-12T17:16:35.117Z,100014.41
2022-09-12T17:19:03.623Z,100014.63
2022-09-12T17:21:32.260Z,100010.94
2022-09-12T17:24:01.982Z,100006.44
2022-09-12T17:26:32.293Z,100002.81
2022-09-12T17:29:00.305Z,100008.75
2022-09-12T17:31:29.018Z,100017.66
2022-09-12T17:33:59.126Z,100013.41
2022-09-12T17:36:27.622Z,100017.25
2022-09-12T17:38:55.955Z,100009.16
2022-09-12T17:41:27.304Z,100008.44
2022-09-12T17:43:58.950Z,100010.53
2022-09-12T17:46:33.411Z,100010.78
2022-09-12T17:49:03.980Z,100005.47
2022-09-12T17:51:33.036Z,100010.16
2022-09-12T17:54:03.353Z,100018.91
2022-09-12T17:56:34.695Z,100013.34
2022-09-12T17:59:03.155Z,100010.97
2022-09-12T18:01:49.123Z,100027.69
2022-09-12T18:04:18.204Z,100023.84
2022-09-12T18:06:48.674Z,100023.34
2022-09-12T18:09:19.359Z,100018.84
2022-09-12T18:11:50.147Z,100024.63
2022-09-12T18:14:20.594Z,100024.13
2022-09-12T18:16:49.367Z,100024.81
2022-09-12T18:19:19.897Z,100023.22
2022-09-12T18:21:50.156Z,100016.94
2022-09-12T18:24:18.362Z,100010.81
2022-09-12T18:30:19.518Z,100014.81
2022-09-12T18:32:44.329Z,100022.28
2022-09-12T18:35:13.048Z,100015.84
2022-09-12T18:37:42.155Z,100017.41
2022-09-12T18:40:11.070Z,100014.56
2022-09-12T18:42:41.167Z,100014.78
2022-09-12T18:45:11.383Z,100007.47
2022-09-12T18:47:39.459Z,100005.72
2022-09-12T18:50:07.905Z,100005.63
2022-09-12T18:52:36.190Z,100013.13
2022-09-12T18:55:04.355Z,100010.34
2022-09-12T18:57:35.013Z,100017.06
2022-09-12T19:00:05.782Z,100013.19
2022-09-12T19:02:37.876Z,100021.09
2022-09-12T19:05:06.625Z,100012.44
2022-09-12T19:07:34.698Z,100012.00
2022-09-12T19:10:03.177Z,100012.53
2022-09-12T19:12:31.206Z,100013.84
2022-09-12T19:15:02.902Z,100022.94
2022-09-12T19:17:31.043Z,100016.75
2022-09-12T19:20:01.008Z,100015.13
2022-09-12T19:22:30.186Z,100025.31
2022-09-12T19:24:58.743Z,100022.06
2022-09-12T19:27:26.639Z,100017.63
2022-09-12T19:29:54.754Z,100017.00
2022-09-12T19:32:22.847Z,100015.56
2022-09-12T19:34:51.149Z,100017.00
2022-09-12T19:37:22.993Z,100012.94
2022-09-12T19:39:51.332Z,100009.59
2022-09-12T19:42:19.550Z,100006.19
2022-09-12T19:44:47.865Z,99997.50
2022-09-12T19:47:15.896Z,99997.72
2022-09-12T19:49:44.076Z,99994.47
2022-09-12T19:52:17.463Z,99994.28
2022-09-12T19:54:47.070Z,100004.50
2022-09-12T19:57:15.531Z,99998.66
2022-09-12T19:59:45.035Z,99995.44
2022-09-12T20:02:13.596Z,99987.97
2022-09-12T20:04:42.053Z,99976.63
2022-09-12T20:07:10.045Z,99971.53
2022-09-12T20:09:40.093Z,99980.59
2022-09-12T20:12:09.816Z,99986.41
2022-09-12T20:14:37.862Z,99982.28
2022-09-12T20:17:05.896Z,99988.41
2022-09-12T20:19:33.884Z,99988.88
2022-09-12T20:22:01.988Z,99984.88
2022-09-12T20:24:30.053Z,99976.13
2022-09-12T20:27:00.239Z,99980.22
2022-09-12T20:29:29.587Z,99978.16
2022-09-12T20:31:57.696Z,99976.16
2022-09-12T20:34:27.903Z,99978.22
2022-09-12T20:36:58.328Z,99980.22
2022-09-12T20:39:26.717Z,99983.00
2022-09-12T20:41:54.718Z,99978.88
2022-09-12T20:44:22.778Z,99965.03
2022-09-12T20:46:52.469Z,99959.41
2022-09-12T20:49:20.836Z,99954.66
2022-09-12T20:51:48.820Z,99946.34
2022-09-12T20:54:19.551Z,99950.47
2022-09-12T20:56:47.522Z,99945.56
2022-09-12T20:59:21.927Z,99935.25
2022-09-12T21:01:53.638Z,99937.38
2022-09-12T21:04:22.354Z,99942.19
2022-09-12T21:06:50.401Z,99938.81
2022-09-12T21:09:20.995Z,99915.53
2022-09-12T21:11:48.958Z,99943.06
2022-09-12T21:14:17.109Z,99942.66
2022-09-12T21:16:47.158Z,99937.16
2022-09-12T21:19:16.923Z,99932.25
2022-09-12T21:21:44.893Z,99943.94
2022-09-12T21:24:14.714Z,99941.16
2022-09-12T21:26:42.720Z,99944.41
2022-09-12T21:29:11.123Z,99936.25
2022-09-12T21:31:39.189Z,99932.41
2022-09-12T21:34:07.430Z,99937.28
2022-09-12T21:36:37.040Z,99936.72
2022-09-12T21:39:05.394Z,99936.91
2022-09-12T21:41:33.432Z,99930.56
2022-09-12T21:44:01.858Z,99936.72
2022-09-12T21:46:29.895Z,99937.94
2022-09-12T21:48:58.248Z,99928.44
2022-09-12T21:51:26.402Z,99928.59
2022-09-12T21:53:55.882Z,99929.84
2022-09-12T21:56:24.782Z,99927.25
2022-09-12T21:58:52.691Z,99930.81
2022-09-12T22:01:21.057Z,99935.41
2022-09-12T22:03:50.023Z,99940.88
2022-09-12T22:06:21.940Z,99944.69
2022-09-12T22:08:50.519Z,99936.81
2022-09-12T22:11:20.696Z,99928.06
2022-09-12T22:13:48.782Z,99940.47
2022-09-12T22:16:17.873Z,99935.25
2022-09-12T22:18:46.759Z,99939.84
2022-09-12T22:21:19.480Z,99934.56
2022-09-12T22:24:05.374Z,99935.44
2022-09-12T22:26:42.099Z,99930.25
2022-09-12T22:29:11.040Z,99930.53
2022-09-12T22:31:39.496Z,99931.53
2022-09-12T22:34:08.303Z,99928.84
2022-09-12T22:36:38.943Z,99931.81
2022-09-12T22:39:07.553Z,99923.94
2022-09-12T22:41:39.456Z,99919.63
2022-09-12T22:44:07.497Z,99915.97
2022-09-12T22:46:35.510Z,99887.94
2022-09-12T22:49:04.670Z,99915.03
2022-09-12T22:51:37.433Z,99914.28
2022-09-12T22:54:05.814Z,99908.22
2022-09-12T22:56:34.351Z,99900.44
2022-09-12T22:59:06.096Z,99902.47
2022-09-12T23:01:35.492Z,99905.44
2022-09-12T23:04:04.114Z,99912.78
2022-09-12T23:06:32.337Z,99904.84
2022-09-12T23:09:00.339Z,99894.19
2022-09-12T23:11:28.457Z,99880.09
2022-09-12T23:13:56.559Z,99884.66
2022-09-12T23:16:28.323Z,99877.88
2022-09-12T23:18:56.604Z,99884.88
2022-09-12T23:21:24.942Z,99888.69
2022-09-12T23:23:53.199Z,99897.00
2022-09-12T23:26:28.322Z,99897.34
2022-09-12T23:31:00.630Z,99889.72
2022-09-12T23:33:29.214Z,99892.66
2022-09-12T23:36:01.707Z,99897.31
2022-09-12T23:38:30.760Z,99900.19
2022-09-12T23:40:59.256Z,99902.69
2022-09-12T23:43:28.203Z,99896.28
2022-09-12T23:45:56.277Z,99905.22
2022-09-12T23:48:26.468Z,99898.25
2022-09-12T23:50:55.273Z,99902.91
2022-09-12T23:53:24.408Z,99901.97
2022-09-12T23:55:52.418Z,99899.31
2022-09-12T23:58:23.408Z,99888.84
